Current Weather

Leeuwarden

Leeuwarden, Netherlands (EHLW)

Report from: Sunday, June 26, 2022 5:55 PM CEST
Current time: Sunday, June 26, 2022 6:31 PM CEST

Nearby weather
Weather history
Weather forecast

Temperature20.0°C (68.0°F)
Dew point12.0°C (53.6°F)
Winds 8 kts (4.1 m/s, 9.2 mph) Vrb
Winds variableWinds variable from Southeast (130°) to West-Southwest (240°)
Visibility6.2 mi. (10 km)
Clouds Ceiling: Overcast 11,000 ft. (3,353 m)
Altimeter30.00 in.Hg (1016 mB)
Relative humidity60 %
Density altitude689 ft. (210 m)
Remarks Fully automated report
Flight conditions Visual Meteorological Conditions
Raw dataEHLW 261555Z AUTO 18008KT 130V240 9999 OVC110 20/12 Q1016 BLU
An error has occurred. This application may no longer respond until reloaded. Reload 🗙